Time;durP1;ratioP1;P1;durP2;ratioP2;P2;SDS_P1;SDS_P2;PMS_P1;PMS_P2;Temp;Humidity;BMP_temperature;BMP_pressure;BME280_temperature;BME280_humidity;BME280_pressure;Samples;Min_cycle;Max_cycle;Signal;HPM_P1;HPM_P2
2023/05/05 00:00:53;;;;;;;5.07;3.30;;;;;;;;;;4995732;28;20302;-49
2023/05/05 00:03:22;;;;;;;6.00;3.42;;;;;;;;;;4996430;28;20193;-49
2023/05/05 00:05:48;;;;;;;3.85;3.22;;;;;;;;;;4996027;28;20185;-49
2023/05/05 00:08:14;;;;;;;4.32;3.63;;;;;;;;;;4994434;28;20181;-50
2023/05/05 00:10:50;;;;;;;3.95;3.28;;;;;;;;;;4994585;28;20572;-50
2023/05/05 00:13:17;;;;;;;4.90;3.55;;;;;;;;;;4996127;28;20193;-49
2023/05/05 00:15:43;;;;;;;4.55;3.35;;;;;;;;;;4996789;28;20248;-49
2023/05/05 00:18:09;;;;;;;4.07;3.22;;;;;;;;;;4993989;28;20698;-49
2023/05/05 00:20:36;;;;;;;5.10;3.50;;;;;;;;;;4995575;28;20177;-50
2023/05/05 00:23:02;;;;;;;3.88;3.47;;;;;;;;;;4995131;28;20601;-50
2023/05/05 00:25:28;;;;;;;5.25;4.13;;;;;;;;;;4996317;28;20200;-49
2023/05/05 00:27:54;;;;;;;5.25;4.18;;;;;;;;;;4994708;28;20185;-49
2023/05/05 00:30:20;;;;;;;8.13;3.80;;;;;;;;;;4994772;28;20173;-49
2023/05/05 00:32:49;;;;;;;4.05;3.47;;;;;;;;;;4994948;28;20220;-49
2023/05/05 00:35:16;;;;;;;4.75;3.50;;;;;;;;;;4995697;28;20186;-49
2023/05/05 00:37:42;;;;;;;4.50;3.72;;;;;;;;;;4994037;28;20189;-49
2023/05/05 00:40:08;;;;;;;6.10;3.22;;;;;;;;;;4995381;28;20553;-50
2023/05/05 00:42:41;;;;;;;4.00;3.35;;;;;;;;;;4995479;28;20189;-50
2023/05/05 00:45:08;;;;;;;4.55;3.60;;;;;;;;;;4993868;28;20209;-49
2023/05/05 00:47:34;;;;;;;7.28;4.15;;;;;;;;;;4994835;28;20193;-50
2023/05/05 00:50:00;;;;;;;4.47;3.53;;;;;;;;;;4994043;28;20192;-50
2023/05/05 00:52:26;;;;;;;4.05;3.65;;;;;;;;;;4995459;28;20216;-49
2023/05/05 00:54:53;;;;;;;3.47;3.13;;;;;;;;;;4993857;28;20211;-50
2023/05/05 00:57:20;;;;;;;5.03;3.67;;;;;;;;;;4994218;28;20205;-49
2023/05/05 00:59:46;;;;;;;5.10;3.70;;;;;;;;;;4992649;28;20379;-49
2023/05/05 01:02:11;;;;;;;4.05;3.50;;;;;;;;;;4996035;28;20504;-49
2023/05/05 01:04:37;;;;;;;5.40;3.85;;;;;;;;;;4996002;28;20185;-49
2023/05/05 01:07:03;;;;;;;5.53;3.92;;;;;;;;;;4995483;28;20228;-49
2023/05/05 01:09:47;;;;;;;4.32;3.83;;;;;;;;;;4995120;28;20221;-49
2023/05/05 01:12:26;;;;;;;6.35;4.07;;;;;;;;;;4991804;28;20463;-49
2023/05/05 01:15:00;;;;;;;4.32;3.92;;;;;;;;;;4992397;28;20247;-49
2023/05/05 01:17:31;;;;;;;4.57;3.92;;;;;;;;;;4994048;28;20610;-49
2023/05/05 01:20:06;;;;;;;5.25;3.80;;;;;;;;;;4993812;28;20272;-49
2023/05/05 01:22:38;;;;;;;5.43;3.88;;;;;;;;;;4994790;28;20184;-50
2023/05/05 01:25:16;;;;;;;5.53;3.85;;;;;;;;;;4995623;28;20263;-49
2023/05/05 01:28:05;;;;;;;4.55;4.00;;;;;;;;;;4990444;28;20188;-49
2023/05/05 01:30:38;;;;;;;4.68;3.83;;;;;;;;;;4994095;28;20181;-49
2023/05/05 01:33:06;;;;;;;6.93;4.25;;;;;;;;;;4994742;28;20250;-50
2023/05/05 01:35:35;;;;;;;7.20;3.95;;;;;;;;;;4994678;28;20264;-49
2023/05/05 01:38:09;;;;;;;5.07;3.90;;;;;;;;;;4994440;28;20332;-49
2023/05/05 01:40:40;;;;;;;6.05;4.20;;;;;;;;;;4993100;28;20193;-49
2023/05/05 01:43:07;;;;;;;6.30;4.47;;;;;;;;;;4994015;28;20185;-49
2023/05/05 01:45:36;;;;;;;6.13;4.57;;;;;;;;;;4994146;28;20213;-49
2023/05/05 01:48:02;;;;;;;5.40;4.10;;;;;;;;;;4994789;28;20434;-49
2023/05/05 01:50:28;;;;;;;6.78;4.18;;;;;;;;;;4993591;28;20706;-50
2023/05/05 01:52:56;;;;;;;6.43;4.57;;;;;;;;;;4994405;28;20224;-49
2023/05/05 01:55:23;;;;;;;5.63;3.72;;;;;;;;;;4994601;28;20189;-49
2023/05/05 01:57:50;;;;;;;7.03;4.15;;;;;;;;;;4993802;28;20448;-50
2023/05/05 02:00:17;;;;;;;8.63;4.40;;;;;;;;;;4993976;28;20233;-49
2023/05/05 02:02:45;;;;;;;7.05;4.75;;;;;;;;;;4994105;28;20193;-50
2023/05/05 02:05:12;;;;;;;5.70;4.38;;;;;;;;;;4994253;28;20179;-49
2023/05/05 02:07:38;;;;;;;6.35;4.40;;;;;;;;;;4997867;28;20251;-49
2023/05/05 02:10:05;;;;;;;5.78;4.30;;;;;;;;;;4996945;28;20231;-50
2023/05/05 02:12:32;;;;;;;7.03;4.88;;;;;;;;;;4997626;28;20307;-49
2023/05/05 02:14:59;;;;;;;7.82;4.82;;;;;;;;;;4999171;28;20188;-49
2023/05/05 02:17:26;;;;;;;5.35;4.30;;;;;;;;;;4997149;28;20223;-50
2023/05/05 02:19:52;;;;;;;7.95;4.32;;;;;;;;;;4997429;28;20272;-49
2023/05/05 02:22:18;;;;;;;6.25;4.10;;;;;;;;;;4998023;28;20517;-50
2023/05/05 02:24:44;;;;;;;9.57;4.82;;;;;;;;;;5000248;28;20580;-49
2023/05/05 02:27:10;;;;;;;6.53;4.05;;;;;;;;;;4998279;28;20185;-49
2023/05/05 02:29:51;;;;;;;6.30;4.38;;;;;;;;;;4996837;28;20189;-49
2023/05/05 02:32:20;;;;;;;7.35;4.80;;;;;;;;;;4997308;28;20205;-49
2023/05/05 02:34:47;;;;;;;7.07;4.40;;;;;;;;;;4990326;28;20215;-50
2023/05/05 02:37:15;;;;;;;6.57;4.63;;;;;;;;;;4994659;28;20272;-49
2023/05/05 02:39:50;;;;;;;5.97;4.45;;;;;;;;;;4997358;28;20205;-50
2023/05/05 02:42:19;;;;;;;6.45;4.90;;;;;;;;;;4997433;28;20192;-49
2023/05/05 02:44:45;;;;;;;8.25;5.18;;;;;;;;;;4997321;28;20244;-49
2023/05/05 02:47:11;;;;;;;8.60;5.18;;;;;;;;;;5000495;28;20271;-49
2023/05/05 02:49:37;;;;;;;6.78;4.70;;;;;;;;;;4996256;28;20189;-49
2023/05/05 02:52:03;;;;;;;8.45;4.82;;;;;;;;;;4997224;28;20292;-50
2023/05/05 02:54:30;;;;;;;7.55;4.90;;;;;;;;;;4998023;28;20185;-49
2023/05/05 02:56:56;;;;;;;7.00;4.57;;;;;;;;;;4997391;28;20216;-50
2023/05/05 02:59:22;;;;;;;7.43;4.68;;;;;;;;;;4996647;28;20311;-49
2023/05/05 03:01:52;;;;;;;6.72;4.82;;;;;;;;;;4996541;28;20256;-49
2023/05/05 03:04:38;;;;;;;6.05;4.40;;;;;;;;;;4997272;28;20176;-49
2023/05/05 03:07:17;;;;;;;6.25;4.40;;;;;;;;;;4994990;28;20189;-49
2023/05/05 03:09:45;;;;;;;7.10;4.30;;;;;;;;;;4994014;28;20185;-50
2023/05/05 03:12:14;;;;;;;6.53;4.25;;;;;;;;;;4996752;28;20479;-49
2023/05/05 03:14:42;;;;;;;5.55;4.25;;;;;;;;;;4997844;28;20569;-49
2023/05/05 03:17:12;;;;;;;6.25;4.38;;;;;;;;;;4991570;28;20181;-50
2023/05/05 03:19:40;;;;;;;6.18;4.28;;;;;;;;;;4996864;28;20182;-50
2023/05/05 03:22:06;;;;;;;5.20;3.80;;;;;;;;;;4995612;28;20876;-50
2023/05/05 03:24:32;;;;;;;5.97;4.18;;;;;;;;;;4996467;28;20184;-50
2023/05/05 03:26:57;;;;;;;10.20;3.80;;;;;;;;;;4996900;28;20553;-49
2023/05/05 03:29:24;;;;;;;6.68;3.92;;;;;;;;;;4996975;28;20189;-46
2023/05/05 03:31:50;;;;;;;5.70;3.78;;;;;;;;;;4996836;28;20209;-46
2023/05/05 03:34:16;;;;;;;7.78;3.80;;;;;;;;;;4997457;28;20592;-46
2023/05/05 03:36:42;;;;;;;8.00;3.58;;;;;;;;;;4996872;28;20232;-45
2023/05/05 03:39:08;;;;;;;25.38;7.95;;;;;;;;;;4995653;28;20182;-47
2023/05/05 03:41:34;;;;;;;68.00;14.05;;;;;;;;;;4995697;28;20185;-51
2023/05/05 03:43:59;;;;;;;44.08;12.57;;;;;;;;;;4997001;28;20195;-51
2023/05/05 03:46:25;;;;;;;39.85;10.50;;;;;;;;;;4996268;28;20665;-51
2023/05/05 03:48:51;;;;;;;32.90;10.68;;;;;;;;;;4996693;28;20182;-50
2023/05/05 03:51:17;;;;;;;33.72;10.02;;;;;;;;;;4995114;28;20240;-50
2023/05/05 03:53:43;;;;;;;34.25;10.05;;;;;;;;;;4996718;28;20177;-49
2023/05/05 03:56:09;;;;;;;26.40;8.70;;;;;;;;;;4996048;28;20192;-50
2023/05/05 03:58:35;;;;;;;24.13;8.98;;;;;;;;;;4996167;28;20267;-50
2023/05/05 04:01:01;;;;;;;28.80;9.32;;;;;;;;;;4990549;28;20215;-50
2023/05/05 04:03:27;;;;;;;20.55;8.60;;;;;;;;;;4992545;28;20244;-50
2023/05/05 04:05:53;;;;;;;22.45;6.80;;;;;;;;;;4995210;28;20479;-50
2023/05/05 04:08:19;;;;;;;16.98;6.75;;;;;;;;;;4995586;28;20739;-51
2023/05/05 04:10:45;;;;;;;17.63;6.80;;;;;;;;;;4995582;28;20718;-50
2023/05/05 04:13:11;;;;;;;13.57;5.57;;;;;;;;;;4995785;28;20240;-51
2023/05/05 04:15:37;;;;;;;12.57;5.78;;;;;;;;;;4995805;28;20627;-51
2023/05/05 04:18:03;;;;;;;11.88;6.18;;;;;;;;;;4994643;28;20557;-50
2023/05/05 04:20:30;;;;;;;11.77;5.57;;;;;;;;;;4995597;28;20196;-50
2023/05/05 04:22:55;;;;;;;10.18;4.93;;;;;;;;;;4996560;28;20254;-50
2023/05/05 04:25:21;;;;;;;8.05;5.10;;;;;;;;;;4994978;28;20192;-51
2023/05/05 04:27:47;;;;;;;10.65;4.82;;;;;;;;;;4995211;28;20189;-51
2023/05/05 04:30:13;;;;;;;10.88;4.40;;;;;;;;;;4996494;28;20181;-50
2023/05/05 04:32:39;;;;;;;8.95;4.72;;;;;;;;;;4994657;28;20208;-51
2023/05/05 04:35:05;;;;;;;8.07;4.35;;;;;;;;;;4996232;28;20188;-51
2023/05/05 04:37:31;;;;;;;9.95;4.93;;;;;;;;;;4994881;28;20188;-51
2023/05/05 04:39:57;;;;;;;9.98;4.43;;;;;;;;;;4995088;28;20191;-50
2023/05/05 04:42:23;;;;;;;9.35;4.55;;;;;;;;;;4995325;28;20173;-51
2023/05/05 04:44:49;;;;;;;8.32;4.55;;;;;;;;;;4995569;28;20193;-51
2023/05/05 04:47:15;;;;;;;5.57;4.30;;;;;;;;;;4994309;28;20196;-50
2023/05/05 04:49:41;;;;;;;7.68;4.30;;;;;;;;;;4995626;28;20231;-50
2023/05/05 04:52:07;;;;;;;6.25;4.28;;;;;;;;;;4995253;28;20224;-50
2023/05/05 04:54:36;;;;;;;7.45;4.03;;;;;;;;;;4995728;28;20209;-50
2023/05/05 04:57:02;;;;;;;5.88;4.07;;;;;;;;;;4993632;28;20216;-51
2023/05/05 04:59:28;;;;;;;6.72;3.88;;;;;;;;;;4993316;28;20192;-50
2023/05/05 05:01:54;;;;;;;8.43;4.28;;;;;;;;;;4995273;28;20189;-51
2023/05/05 05:04:21;;;;;;;7.97;4.78;;;;;;;;;;4995379;28;20471;-50
2023/05/05 05:06:46;;;;;;;7.22;4.45;;;;;;;;;;4994456;28;20185;-51
2023/05/05 05:09:13;;;;;;;4.88;3.45;;;;;;;;;;4993944;28;20181;-50
2023/05/05 05:11:38;;;;;;;6.32;4.07;;;;;;;;;;4991472;28;20512;-50
2023/05/05 05:14:04;;;;;;;7.63;3.92;;;;;;;;;;4993337;28;20177;-51
2023/05/05 05:16:30;;;;;;;4.90;3.67;;;;;;;;;;4994744;28;20606;-51
2023/05/05 05:18:56;;;;;;;7.50;4.13;;;;;;;;;;4994653;28;20185;-50
2023/05/05 05:21:22;;;;;;;5.45;3.83;;;;;;;;;;4995507;28;20214;-50
2023/05/05 05:23:48;;;;;;;4.88;3.58;;;;;;;;;;4994389;28;20295;-50
2023/05/05 05:26:15;;;;;;;5.90;4.13;;;;;;;;;;4992113;28;20181;-51
2023/05/05 05:28:41;;;;;;;4.75;3.45;;;;;;;;;;4987377;28;20228;-51
2023/05/05 05:31:07;;;;;;;6.40;3.30;;;;;;;;;;4994451;28;20205;-51
2023/05/05 05:33:33;;;;;;;5.60;3.60;;;;;;;;;;4995033;28;20219;-50
2023/05/05 05:35:59;;;;;;;6.28;3.60;;;;;;;;;;4994907;28;20276;-50
2023/05/05 05:38:25;;;;;;;6.00;3.78;;;;;;;;;;4993442;28;20728;-50
2023/05/05 05:40:51;;;;;;;7.57;3.80;;;;;;;;;;4993500;28;20181;-51
2023/05/05 05:43:16;;;;;;;4.63;3.42;;;;;;;;;;4993518;28;20259;-50
2023/05/05 05:45:42;;;;;;;5.75;3.30;;;;;;;;;;4995179;28;20541;-50
2023/05/05 05:48:08;;;;;;;5.13;3.55;;;;;;;;;;4993422;28;20181;-51
2023/05/05 05:50:35;;;;;;;5.32;3.60;;;;;;;;;;4992505;28;20189;-50
2023/05/05 05:53:01;;;;;;;5.35;3.40;;;;;;;;;;4994404;28;20196;-51
2023/05/05 05:55:27;;;;;;;3.75;3.22;;;;;;;;;;4993984;28;20564;-50
2023/05/05 05:57:53;;;;;;;5.10;3.40;;;;;;;;;;4993974;28;20192;-51
2023/05/05 06:00:19;;;;;;;7.75;3.97;;;;;;;;;;4994582;28;20185;-50
2023/05/05 06:02:45;;;;;;;5.63;3.40;;;;;;;;;;4994889;28;20440;-51
2023/05/05 06:05:11;;;;;;;5.63;3.42;;;;;;;;;;4992944;28;20209;-51
2023/05/05 06:07:40;;;;;;;6.20;3.75;;;;;;;;;;4993966;28;20181;-49
2023/05/05 06:10:07;;;;;;;6.97;3.63;;;;;;;;;;4993789;28;20196;-50
2023/05/05 06:12:33;;;;;;;5.13;3.10;;;;;;;;;;4994174;28;20262;-50
2023/05/05 06:14:59;;;;;;;6.70;3.42;;;;;;;;;;4994034;28;20251;-50
2023/05/05 06:17:25;;;;;;;3.85;3.22;;;;;;;;;;4994398;28;20184;-50
2023/05/05 06:19:50;;;;;;;3.78;2.80;;;;;;;;;;4993233;28;20185;-50
2023/05/05 06:22:16;;;;;;;3.28;2.78;;;;;;;;;;4977221;28;20272;-50
2023/05/05 06:24:43;;;;;;;4.60;2.90;;;;;;;;;;4994123;28;20557;-50
2023/05/05 06:27:09;;;;;;;3.90;2.90;;;;;;;;;;4993588;28;20521;-50
2023/05/05 06:29:36;;;;;;;3.85;2.83;;;;;;;;;;4993879;28;20203;-50
2023/05/05 06:32:02;;;;;;;4.53;3.10;;;;;;;;;;4994194;28;20209;-51
2023/05/05 06:34:27;;;;;;;4.32;2.65;;;;;;;;;;4994436;28;20231;-50
2023/05/05 06:36:53;;;;;;;5.53;3.22;;;;;;;;;;4993332;28;20173;-51
2023/05/05 06:39:19;;;;;;;3.78;3.08;;;;;;;;;;4990603;28;20190;-50
2023/05/05 06:41:45;;;;;;;3.67;2.85;;;;;;;;;;4993477;28;20193;-51
2023/05/05 06:44:11;;;;;;;3.38;2.65;;;;;;;;;;4993418;28;20200;-51
2023/05/05 06:46:37;;;;;;;4.43;2.95;;;;;;;;;;4994294;28;20177;-51
2023/05/05 06:49:03;;;;;;;3.42;2.60;;;;;;;;;;4991480;28;20185;-50
2023/05/05 06:51:30;;;;;;;5.15;2.70;;;;;;;;;;4993222;28;20453;-49
2023/05/05 06:53:56;;;;;;;3.15;2.65;;;;;;;;;;4996101;28;20549;-49
2023/05/05 06:56:22;;;;;;;2.83;2.50;;;;;;;;;;4996315;28;20197;-50
2023/05/05 06:58:49;;;;;;;5.45;2.72;;;;;;;;;;4996797;28;20595;-50
2023/05/05 07:01:15;;;;;;;5.47;2.80;;;;;;;;;;4997908;28;20173;-50
2023/05/05 07:03:41;;;;;;;2.85;2.55;;;;;;;;;;4998064;28;20184;-49
2023/05/05 07:06:07;;;;;;;2.97;2.45;;;;;;;;;;4994570;28;20185;-51
2023/05/05 07:08:33;;;;;;;2.67;2.15;;;;;;;;;;4995687;28;20189;-50
2023/05/05 07:11:00;;;;;;;2.67;2.30;;;;;;;;;;4996435;28;20460;-51
2023/05/05 07:13:26;;;;;;;5.13;2.30;;;;;;;;;;4996972;28;20201;-50
2023/05/05 07:15:52;;;;;;;2.70;2.30;;;;;;;;;;4996415;28;20263;-50
2023/05/05 07:18:19;;;;;;;4.30;2.40;;;;;;;;;;4995834;28;20307;-49
2023/05/05 07:20:45;;;;;;;3.35;2.55;;;;;;;;;;4997393;28;20182;-51
2023/05/05 07:23:11;;;;;;;1.77;1.67;;;;;;;;;;4994364;28;20561;-50
2023/05/05 07:25:37;;;;;;;2.55;2.10;;;;;;;;;;4995294;28;20461;-50
2023/05/05 07:28:03;;;;;;;2.17;1.98;;;;;;;;;;4977814;28;20193;-50
2023/05/05 07:30:29;;;;;;;4.53;2.17;;;;;;;;;;4997005;28;20192;-51
2023/05/05 07:32:55;;;;;;;2.05;1.60;;;;;;;;;;4995871;28;20213;-50
2023/05/05 07:35:22;;;;;;;3.15;1.80;;;;;;;;;;4996942;28;20464;-51
2023/05/05 07:37:51;;;;;;;2.25;2.05;;;;;;;;;;4995989;28;20476;-51
2023/05/05 07:40:17;;;;;;;2.30;1.67;;;;;;;;;;4993385;28;20200;-49
2023/05/05 07:42:43;;;;;;;4.10;2.00;;;;;;;;;;4996722;28;20457;-50
2023/05/05 07:45:09;;;;;;;2.65;1.70;;;;;;;;;;4997224;28;20207;-50
2023/05/05 07:47:34;;;;;;;2.88;2.33;;;;;;;;;;4995412;28;20185;-51
2023/05/05 07:50:00;;;;;;;2.10;1.48;;;;;;;;;;4996162;28;20292;-51
2023/05/05 07:52:26;;;;;;;2.03;1.63;;;;;;;;;;4996502;28;20216;-50
2023/05/05 07:54:52;;;;;;;1.90;1.80;;;;;;;;;;4996157;28;20189;-50
2023/05/05 07:57:18;;;;;;;5.30;2.00;;;;;;;;;;4995984;28;20200;-51
2023/05/05 07:59:44;;;;;;;3.55;1.73;;;;;;;;;;4994951;28;20276;-50
2023/05/05 08:02:11;;;;;;;4.85;2.00;;;;;;;;;;4995874;28;20531;-50
2023/05/05 08:04:37;;;;;;;3.15;1.90;;;;;;;;;;4996052;28;20476;-50
2023/05/05 08:07:03;;;;;;;2.22;1.80;;;;;;;;;;4996134;28;20299;-50
2023/05/05 08:09:29;;;;;;;2.47;1.75;;;;;;;;;;4994374;28;20268;-51
2023/05/05 08:11:55;;;;;;;2.15;1.73;;;;;;;;;;4995431;28;20209;-52
2023/05/05 08:14:21;;;;;;;1.60;1.50;;;;;;;;;;4995470;28;20186;-51
2023/05/05 08:16:47;;;;;;;1.90;1.73;;;;;;;;;;4978151;28;20189;-51
2023/05/05 08:19:13;;;;;;;2.90;1.70;;;;;;;;;;4994102;28;20185;-50
2023/05/05 08:21:39;;;;;;;2.45;1.80;;;;;;;;;;4995862;28;20193;-50
2023/05/05 08:24:05;;;;;;;2.08;1.73;;;;;;;;;;4996666;28;20189;-50
2023/05/05 08:26:31;;;;;;;2.40;1.80;;;;;;;;;;4996264;28;20430;-51
2023/05/05 08:28:59;;;;;;;3.72;1.85;;;;;;;;;;4995934;28;20185;-51
2023/05/05 08:31:25;;;;;;;2.75;1.88;;;;;;;;;;4994749;28;20236;-50
2023/05/05 08:33:51;;;;;;;1.83;1.60;;;;;;;;;;4994493;28;20185;-50
2023/05/05 08:36:17;;;;;;;2.88;1.77;;;;;;;;;;4996132;28;20192;-51
2023/05/05 08:38:43;;;;;;;2.00;1.55;;;;;;;;;;4995503;28;20173;-50
2023/05/05 08:41:13;;;;;;;2.25;1.70;;;;;;;;;;4995951;28;20181;-51
2023/05/05 08:43:40;;;;;;;1.95;1.60;;;;;;;;;;4995676;28;20463;-51
2023/05/05 08:46:06;;;;;;;1.88;1.70;;;;;;;;;;4996265;28;20177;-50
2023/05/05 08:48:33;;;;;;;1.60;1.50;;;;;;;;;;4993858;28;20177;-50
2023/05/05 08:50:59;;;;;;;3.05;1.92;;;;;;;;;;4994758;28;20303;-51
2023/05/05 08:53:32;;;;;;;2.63;1.88;;;;;;;;;;4991635;28;20612;-50
2023/05/05 08:55:59;;;;;;;3.97;1.80;;;;;;;;;;4995285;28;20596;-50
2023/05/05 08:58:25;;;;;;;3.45;2.03;;;;;;;;;;4994061;28;20475;-50
2023/05/05 09:00:51;;;;;;;3.20;1.95;;;;;;;;;;4994570;28;20177;-51
2023/05/05 09:03:17;;;;;;;3.47;2.05;;;;;;;;;;4993119;28;20493;-50
2023/05/05 09:05:44;;;;;;;3.63;1.92;;;;;;;;;;4994993;28;20212;-49
2023/05/05 09:08:10;;;;;;;2.45;1.73;;;;;;;;;;4993832;28;20264;-51
2023/05/05 09:10:39;;;;;;;2.03;1.77;;;;;;;;;;4995659;28;20231;-50
2023/05/05 09:13:05;;;;;;;3.53;2.08;;;;;;;;;;4993055;28;20232;-50
2023/05/05 09:15:32;;;;;;;2.10;1.90;;;;;;;;;;4977503;28;20215;-50
2023/05/05 09:17:58;;;;;;;1.92;1.73;;;;;;;;;;4993705;28;20235;-50
2023/05/05 09:20:29;;;;;;;3.05;1.77;;;;;;;;;;4994438;28;20228;-51
2023/05/05 09:22:56;;;;;;;2.38;2.17;;;;;;;;;;4994765;28;20435;-50
2023/05/05 09:25:22;;;;;;;2.47;1.60;;;;;;;;;;4994537;28;20560;-51
2023/05/05 09:27:48;;;;;;;2.80;2.20;;;;;;;;;;4993727;28;20251;-50
2023/05/05 09:30:16;;;;;;;3.17;2.25;;;;;;;;;;4995201;28;20515;-51
2023/05/05 09:32:46;;;;;;;2.10;1.90;;;;;;;;;;4994517;28;20493;-50
2023/05/05 09:35:12;;;;;;;3.03;2.00;;;;;;;;;;4993970;28;20185;-50
2023/05/05 09:37:38;;;;;;;2.88;2.13;;;;;;;;;;4993682;28;20264;-50
2023/05/05 09:40:04;;;;;;;1.90;1.73;;;;;;;;;;4994070;28;20181;-51
2023/05/05 09:42:30;;;;;;;2.50;2.10;;;;;;;;;;4994180;28;20193;-51
2023/05/05 09:44:56;;;;;;;2.00;1.80;;;;;;;;;;4995076;28;20596;-51
2023/05/05 09:47:44;;;;;;;3.10;1.80;;;;;;;;;;4994271;28;20184;-50
2023/05/05 09:50:14;;;;;;;2.53;1.80;;;;;;;;;;4993983;28;20191;-50
2023/05/05 09:52:40;;;;;;;3.42;1.67;;;;;;;;;;4994341;28;20200;-50
2023/05/05 09:55:07;;;;;;;2.03;1.70;;;;;;;;;;4991224;28;20266;-51
2023/05/05 09:57:33;;;;;;;2.90;1.90;;;;;;;;;;4993754;28;20588;-50
2023/05/05 10:00:00;;;;;;;1.83;1.73;;;;;;;;;;4994599;28;20192;-50
2023/05/05 10:02:30;;;;;;;2.92;1.90;;;;;;;;;;4994255;28;20196;-50
2023/05/05 10:05:06;;;;;;;2.20;1.90;;;;;;;;;;4994869;28;20201;-50
2023/05/05 10:07:33;;;;;;;2.92;2.28;;;;;;;;;;4993020;28;20192;-50
2023/05/05 10:09:59;;;;;;;1.88;1.75;;;;;;;;;;4993836;28;20181;-51
2023/05/05 10:12:25;;;;;;;2.80;2.35;;;;;;;;;;4993935;28;20254;-51
2023/05/05 10:14:55;;;;;;;4.10;1.77;;;;;;;;;;4994434;28;20252;-50
2023/05/05 10:17:24;;;;;;;3.10;2.03;;;;;;;;;;4993966;28;20268;-50
2023/05/05 10:19:51;;;;;;;1.63;1.52;;;;;;;;;;4994044;28;20561;-51
2023/05/05 10:22:19;;;;;;;2.00;1.88;;;;;;;;;;4993528;28;20320;-50
2023/05/05 10:24:49;;;;;;;2.45;2.08;;;;;;;;;;4992924;28;20189;-50
2023/05/05 10:27:16;;;;;;;1.90;1.80;;;;;;;;;;4996418;28;20181;-50
2023/05/05 10:29:59;;;;;;;2.65;1.90;;;;;;;;;;4996548;28;20185;-51
2023/05/05 10:32:29;;;;;;;2.28;1.75;;;;;;;;;;4995507;28;20208;-50
2023/05/05 10:35:02;;;;;;;3.13;2.30;;;;;;;;;;4997497;28;20604;-51
2023/05/05 10:37:28;;;;;;;3.38;2.13;;;;;;;;;;4996571;28;20474;-50
2023/05/05 10:39:55;;;;;;;4.43;2.33;;;;;;;;;;4997542;28;20825;-50
2023/05/05 10:42:22;;;;;;;2.17;1.98;;;;;;;;;;4995676;28;20542;-50
2023/05/05 10:44:48;;;;;;;2.55;2.10;;;;;;;;;;4998520;28;20189;-50
2023/05/05 10:47:15;;;;;;;4.15;1.90;;;;;;;;;;4998205;28;20181;-50
2023/05/05 10:49:49;;;;;;;2.28;2.08;;;;;;;;;;4996740;28;20212;-51
2023/05/05 10:52:34;;;;;;;2.42;1.90;;;;;;;;;;4996833;28;20219;-50
2023/05/05 10:55:03;;;;;;;4.75;2.90;;;;;;;;;;4995404;28;20196;-50
2023/05/05 10:57:32;;;;;;;3.55;2.40;;;;;;;;;;4997429;28;20268;-50
2023/05/05 10:59:58;;;;;;;2.90;2.03;;;;;;;;;;4997268;28;20180;-50
2023/05/05 11:02:25;;;;;;;2.38;1.95;;;;;;;;;;4997702;28;20491;-50
2023/05/05 11:05:13;;;;;;;3.95;2.05;;;;;;;;;;4996404;28;20504;-50
2023/05/05 11:07:39;;;;;;;2.75;2.05;;;;;;;;;;4996703;28;20184;-50
2023/05/05 11:10:09;;;;;;;2.83;2.30;;;;;;;;;;4996222;28;20339;-51
2023/05/05 11:12:54;;;;;;;5.38;2.40;;;;;;;;;;4997583;28;20208;-50
2023/05/05 11:15:36;;;;;;;2.95;2.42;;;;;;;;;;4996210;28;20177;-50
2023/05/05 11:18:02;;;;;;;2.53;2.15;;;;;;;;;;4996088;28;20180;-50
2023/05/05 11:20:42;;;;;;;2.78;2.50;;;;;;;;;;4995864;28;20181;-50
2023/05/05 11:23:08;;;;;;;3.67;2.47;;;;;;;;;;4997442;28;20184;-50
2023/05/05 11:25:34;;;;;;;3.63;2.70;;;;;;;;;;4996902;28;20856;-50
2023/05/05 11:28:07;;;;;;;3.15;2.70;;;;;;;;;;4997318;28;20217;-51
2023/05/05 11:30:32;;;;;;;6.85;2.80;;;;;;;;;;4993922;28;20272;-50
2023/05/05 11:33:19;;;;;;;2.85;2.50;;;;;;;;;;4996073;28;20327;-50
2023/05/05 11:35:54;;;;;;;4.30;2.42;;;;;;;;;;4980715;28;20435;-50
2023/05/05 11:38:26;;;;;;;2.88;2.30;;;;;;;;;;4995540;28;20184;-50
2023/05/05 11:40:58;;;;;;;7.57;2.60;;;;;;;;;;4996452;28;20441;-48
2023/05/05 11:43:24;;;;;;;6.20;2.55;;;;;;;;;;4995739;28;20310;-48
2023/05/05 11:46:08;;;;;;;4.78;2.70;;;;;;;;;;4996196;28;20612;-48
2023/05/05 11:48:43;;;;;;;7.20;2.50;;;;;;;;;;4994718;28;20444;-48
2023/05/05 11:51:13;;;;;;;5.35;2.67;;;;;;;;;;4996127;28;20187;-48
2023/05/05 11:53:45;;;;;;;3.08;2.60;;;;;;;;;;4995220;28;20524;-47
2023/05/05 11:56:14;;;;;;;2.55;2.25;;;;;;;;;;4996487;28;20197;-47
2023/05/05 11:58:40;;;;;;;4.95;2.53;;;;;;;;;;4996777;28;20169;-47
2023/05/05 12:01:07;;;;;;;3.60;2.45;;;;;;;;;;4997199;28;20201;-47
2023/05/05 12:03:36;;;;;;;3.85;2.10;;;;;;;;;;4995506;28;20201;-48
2023/05/05 12:06:03;;;;;;;5.38;2.50;;;;;;;;;;4999693;28;20508;-48
2023/05/05 12:08:34;;;;;;;4.10;2.60;;;;;;;;;;4993559;28;20193;-47
2023/05/05 12:11:07;;;;;;;3.72;2.50;;;;;;;;;;4996076;28;20185;-47
2023/05/05 12:13:33;;;;;;;2.55;2.35;;;;;;;;;;4996158;28;20217;-48
2023/05/05 12:16:12;;;;;;;4.18;2.67;;;;;;;;;;4995033;28;20184;-50
2023/05/05 12:18:38;;;;;;;2.50;2.30;;;;;;;;;;4994800;28;20173;-50
2023/05/05 12:21:20;;;;;;;3.33;2.20;;;;;;;;;;4996829;28;20436;-50
2023/05/05 12:23:46;;;;;;;4.25;2.30;;;;;;;;;;4991330;28;20199;-50
2023/05/05 12:26:31;;;;;;;3.33;2.53;;;;;;;;;;4996512;28;20577;-50
2023/05/05 12:28:57;;;;;;;4.47;2.63;;;;;;;;;;4992418;28;20384;-50
2023/05/05 12:31:40;;;;;;;3.38;2.50;;;;;;;;;;4992692;28;20181;-54
2023/05/05 12:34:06;;;;;;;4.30;2.50;;;;;;;;;;4995483;28;20201;-50
2023/05/05 12:36:33;;;;;;;3.78;3.03;;;;;;;;;;4995469;28;20204;-49
2023/05/05 12:38:59;;;;;;;2.78;2.47;;;;;;;;;;4994684;28;20169;-47
2023/05/05 12:41:25;;;;;;;3.25;2.80;;;;;;;;;;4995604;28;20200;-47
2023/05/05 12:43:55;;;;;;;3.25;2.50;;;;;;;;;;4994203;28;20228;-49
2023/05/05 12:46:22;;;;;;;3.50;2.38;;;;;;;;;;4994951;28;20276;-48
2023/05/05 12:48:59;;;;;;;2.55;2.35;;;;;;;;;;4995386;28;20532;-48
2023/05/05 12:51:25;;;;;;;5.40;2.65;;;;;;;;;;4994665;28;20184;-48
2023/05/05 12:54:02;;;;;;;4.43;2.45;;;;;;;;;;4991619;28;20169;-48
2023/05/05 12:56:28;;;;;;;5.00;2.65;;;;;;;;;;4995878;28;20196;-48
2023/05/05 12:58:54;;;;;;;3.03;2.60;;;;;;;;;;4992902;28;20177;-47
2023/05/05 13:01:20;;;;;;;3.22;2.78;;;;;;;;;;4994621;28;20219;-48
2023/05/05 13:03:46;;;;;;;4.28;2.45;;;;;;;;;;4994696;28;20184;-48
2023/05/05 13:06:23;;;;;;;3.20;2.53;;;;;;;;;;4995738;28;20189;-46
2023/05/05 13:08:50;;;;;;;2.97;2.55;;;;;;;;;;4994176;28;20179;-48
2023/05/05 13:11:17;;;;;;;2.53;2.30;;;;;;;;;;4995714;28;20185;-47
2023/05/05 13:13:43;;;;;;;2.60;2.40;;;;;;;;;;4994875;28;20184;-47
2023/05/05 13:16:09;;;;;;;3.47;2.55;;;;;;;;;;4993182;28;20494;-50
2023/05/05 13:18:44;;;;;;;4.80;2.45;;;;;;;;;;4993071;28;20185;-49
2023/05/05 13:21:10;;;;;;;4.30;3.10;;;;;;;;;;4995343;28;20184;-49
2023/05/05 13:23:36;;;;;;;3.13;2.83;;;;;;;;;;4994466;28;20503;-49
2023/05/05 13:26:02;;;;;;;4.55;3.10;;;;;;;;;;4995400;28;20196;-50
2023/05/05 13:28:28;;;;;;;3.33;2.72;;;;;;;;;;4994132;28;20452;-50
2023/05/05 13:30:55;;;;;;;3.42;2.85;;;;;;;;;;4995179;28;20173;-49
2023/05/05 13:33:20;;;;;;;3.00;2.67;;;;;;;;;;4994737;28;20205;-49
2023/05/05 13:35:46;;;;;;;3.63;2.60;;;;;;;;;;4995213;28;20204;-50
2023/05/05 13:38:12;;;;;;;2.92;2.58;;;;;;;;;;4993958;28;20529;-50
2023/05/05 13:40:38;;;;;;;3.20;2.88;;;;;;;;;;4994626;28;20281;-50
2023/05/05 13:43:04;;;;;;;2.97;2.70;;;;;;;;;;4994638;28;20576;-50
2023/05/05 13:45:32;;;;;;;3.13;2.83;;;;;;;;;;4993600;28;20243;-49
2023/05/05 13:47:58;;;;;;;2.45;2.25;;;;;;;;;;4993899;28;20192;-50
2023/05/05 13:50:24;;;;;;;2.85;2.65;;;;;;;;;;4994896;28;20585;-48
2023/05/05 13:52:51;;;;;;;2.65;2.45;;;;;;;;;;4993858;28;20308;-50
2023/05/05 13:55:17;;;;;;;2.90;2.60;;;;;;;;;;4993826;28;20211;-50
2023/05/05 13:57:43;;;;;;;3.15;2.85;;;;;;;;;;4992614;28;20549;-49
2023/05/05 14:00:09;;;;;;;3.22;2.90;;;;;;;;;;4995222;28;20204;-49
2023/05/05 14:02:35;;;;;;;3.80;3.05;;;;;;;;;;4994244;28;20189;-50
2023/05/05 14:05:01;;;;;;;4.13;2.70;;;;;;;;;;4996271;28;20188;-50
2023/05/05 14:07:27;;;;;;;4.05;2.75;;;;;;;;;;4986363;28;20490;-50
2023/05/05 14:09:53;;;;;;;3.13;2.60;;;;;;;;;;4994146;28;20181;-49
2023/05/05 14:12:19;;;;;;;2.83;2.63;;;;;;;;;;4994212;28;20276;-49
2023/05/05 14:14:45;;;;;;;3.17;2.78;;;;;;;;;;4994700;28;20531;-50
2023/05/05 14:17:11;;;;;;;3.15;2.67;;;;;;;;;;4994581;28;20169;-49
2023/05/05 14:19:37;;;;;;;5.35;2.72;;;;;;;;;;4994066;28;20276;-50
2023/05/05 14:22:03;;;;;;;2.97;2.65;;;;;;;;;;4994347;28;20259;-49
2023/05/05 14:24:29;;;;;;;3.13;2.60;;;;;;;;;;4993805;28;20196;-50
2023/05/05 14:26:55;;;;;;;3.35;3.03;;;;;;;;;;4994286;28;20188;-49
2023/05/05 14:29:21;;;;;;;2.30;2.10;;;;;;;;;;4993922;28;20201;-49
2023/05/05 14:31:47;;;;;;;2.80;2.60;;;;;;;;;;4992378;28;20286;-50
2023/05/05 14:34:13;;;;;;;2.70;2.50;;;;;;;;;;4994649;28;20188;-50
2023/05/05 14:36:40;;;;;;;3.33;2.80;;;;;;;;;;4994527;28;20188;-50
2023/05/05 14:39:05;;;;;;;3.90;2.60;;;;;;;;;;4992677;28;20193;-50
2023/05/05 14:41:31;;;;;;;3.45;2.65;;;;;;;;;;4994388;28;20181;-50
2023/05/05 14:43:58;;;;;;;3.35;2.60;;;;;;;;;;4994056;28;20254;-50
2023/05/05 14:46:24;;;;;;;3.10;2.80;;;;;;;;;;4993300;28;20208;-49